Time;durP1;ratioP1;P1;durP2;ratioP2;P2;SDS_P1;SDS_P2;PMS_P1;PMS_P2;Temp;Humidity;BMP_temperature;BMP_pressure;BME280_temperature;BME280_humidity;BME280_pressure;Samples;Min_cycle;Max_cycle;Signal;HPM_P1;HPM_P2
2022/07/09 00:00:04;;;;;;;2.13;1.20;;;;;;;;;;5092736;28;20183;-78
2022/07/09 00:02:30;;;;;;;2.03;1.40;;;;;;;;;;5092614;28;20180;-78
2022/07/09 00:04:56;;;;;;;1.83;1.17;;;;;;;;;;5076138;28;20204;-78
2022/07/09 00:07:22;;;;;;;2.23;1.40;;;;;;;;;;5093991;28;20180;-78
2022/07/09 00:09:48;;;;;;;2.07;1.30;;;;;;;;;;5075965;28;20188;-78
2022/07/09 00:12:14;;;;;;;1.37;1.20;;;;;;;;;;5075577;28;20192;-78
2022/07/09 00:14:40;;;;;;;1.10;1.00;;;;;;;;;;5092221;28;20258;-78
2022/07/09 00:17:06;;;;;;;1.30;1.20;;;;;;;;;;5075715;28;20643;-78
2022/07/09 00:19:32;;;;;;;1.87;1.50;;;;;;;;;;5092386;28;20263;-78
2022/07/09 00:21:58;;;;;;;2.97;1.30;;;;;;;;;;5075255;28;20211;-78
2022/07/09 00:24:24;;;;;;;2.33;1.50;;;;;;;;;;5075586;28;20263;-78
2022/07/09 00:26:50;;;;;;;2.93;1.40;;;;;;;;;;5092258;28;20220;-78
2022/07/09 00:29:16;;;;;;;2.33;1.40;;;;;;;;;;5092256;28;20251;-78
2022/07/09 00:31:42;;;;;;;1.70;1.30;;;;;;;;;;5075556;28;20215;-78
2022/07/09 00:34:08;;;;;;;2.07;1.50;;;;;;;;;;5092064;28;20172;-78
2022/07/09 00:36:34;;;;;;;2.27;1.30;;;;;;;;;;5092097;28;20193;-78
2022/07/09 00:39:00;;;;;;;2.30;1.33;;;;;;;;;;5075231;28;20549;-78
2022/07/09 00:41:26;;;;;;;1.60;1.50;;;;;;;;;;5075086;28;20204;-78
2022/07/09 00:43:52;;;;;;;1.73;1.60;;;;;;;;;;5091837;28;20202;-78
2022/07/09 00:46:18;;;;;;;1.63;1.40;;;;;;;;;;5075015;28;20200;-78
2022/07/09 00:48:44;;;;;;;2.20;1.23;;;;;;;;;;5093362;28;20172;-78
2022/07/09 00:51:12;;;;;;;2.40;1.33;;;;;;;;;;5074951;28;20198;-78
2022/07/09 00:53:38;;;;;;;1.33;1.20;;;;;;;;;;5091731;28;20310;-78
2022/07/09 00:56:04;;;;;;;1.60;1.50;;;;;;;;;;5091769;28;20196;-78
2022/07/09 00:58:31;;;;;;;1.90;1.30;;;;;;;;;;5091692;28;20230;-78
2022/07/09 01:00:57;;;;;;;2.17;1.30;;;;;;;;;;5091681;28;20657;-78
2022/07/09 01:03:23;;;;;;;2.03;1.50;;;;;;;;;;5074603;28;20188;-78
2022/07/09 01:05:49;;;;;;;3.00;1.20;;;;;;;;;;5074533;28;20204;-78
2022/07/09 01:08:15;;;;;;;2.13;1.50;;;;;;;;;;5074835;28;20660;-78
2022/07/09 01:10:41;;;;;;;1.80;1.40;;;;;;;;;;5074767;28;20581;-78
2022/07/09 01:13:08;;;;;;;3.10;1.30;;;;;;;;;;5091180;28;20195;-78
2022/07/09 01:15:34;;;;;;;1.83;1.40;;;;;;;;;;5091402;28;20609;-78
2022/07/09 01:18:00;;;;;;;2.40;1.30;;;;;;;;;;5091783;28;20180;-78
2022/07/09 01:20:27;;;;;;;2.97;1.50;;;;;;;;;;5090998;28;20546;-78
2022/07/09 01:22:53;;;;;;;1.87;1.43;;;;;;;;;;5091260;28;20172;-78
2022/07/09 01:25:19;;;;;;;2.00;1.50;;;;;;;;;;5091244;28;20203;-78
2022/07/09 01:27:47;;;;;;;2.13;1.73;;;;;;;;;;5091310;28;20685;-78
2022/07/09 01:30:23;;;;;;;5.97;1.60;;;;;;;;;;5074428;28;20330;-78
2022/07/09 01:32:49;;;;;;;2.77;1.60;;;;;;;;;;5092500;28;20256;-78
2022/07/09 01:35:15;;;;;;;2.53;1.40;;;;;;;;;;5091236;28;20199;-78
2022/07/09 01:37:41;;;;;;;2.77;1.57;;;;;;;;;;5091236;28;20172;-78
2022/07/09 01:40:08;;;;;;;1.93;1.50;;;;;;;;;;5074301;28;20186;-78
2022/07/09 01:42:34;;;;;;;1.83;1.60;;;;;;;;;;5074425;28;20238;-78
2022/07/09 01:45:00;;;;;;;2.10;1.20;;;;;;;;;;5090981;28;20208;-78
2022/07/09 01:47:26;;;;;;;1.87;1.30;;;;;;;;;;5091161;28;20180;-78
2022/07/09 01:49:52;;;;;;;2.93;1.50;;;;;;;;;;5091189;28;20274;-78
2022/07/09 01:52:18;;;;;;;1.80;1.47;;;;;;;;;;5074087;28;20206;-78
2022/07/09 01:54:43;;;;;;;2.73;1.33;;;;;;;;;;5074098;28;20206;-78
2022/07/09 01:57:09;;;;;;;2.37;1.57;;;;;;;;;;5074121;28;20263;-78
2022/07/09 01:59:35;;;;;;;1.47;1.30;;;;;;;;;;5074293;28;20176;-78
2022/07/09 02:02:01;;;;;;;4.47;1.47;;;;;;;;;;5074001;28;20613;-78
2022/07/09 02:04:27;;;;;;;2.50;1.30;;;;;;;;;;5074126;28;20226;-78
2022/07/09 02:06:54;;;;;;;2.03;1.40;;;;;;;;;;5090838;28;20231;-78
2022/07/09 02:09:20;;;;;;;1.67;1.50;;;;;;;;;;5091909;28;20176;-78
2022/07/09 02:11:47;;;;;;;1.50;1.33;;;;;;;;;;5090796;28;20577;-78
2022/07/09 02:14:13;;;;;;;1.50;1.40;;;;;;;;;;5074184;28;20245;-78
2022/07/09 02:16:39;;;;;;;1.57;1.40;;;;;;;;;;5091959;28;20207;-78
2022/07/09 02:19:06;;;;;;;1.97;1.70;;;;;;;;;;5076779;28;20184;-78
2022/07/09 02:21:32;;;;;;;2.23;1.60;;;;;;;;;;5094289;28;20263;-78
2022/07/09 02:23:58;;;;;;;3.20;1.50;;;;;;;;;;5077668;28;20215;-78
2022/07/09 02:26:25;;;;;;;2.17;1.50;;;;;;;;;;5078053;28;20204;-78
2022/07/09 02:28:51;;;;;;;1.80;1.40;;;;;;;;;;5077810;28;20211;-78
2022/07/09 02:31:18;;;;;;;39.30;3.10;;;;;;;;;;5077816;28;20580;-78
2022/07/09 02:33:44;;;;;;;3.10;1.80;;;;;;;;;;5077622;28;20251;-78
2022/07/09 02:36:10;;;;;;;1.70;1.60;;;;;;;;;;5077526;28;20196;-78
2022/07/09 02:38:36;;;;;;;1.63;1.30;;;;;;;;;;5077702;28;20175;-78
2022/07/09 02:41:02;;;;;;;3.23;1.40;;;;;;;;;;5094239;28;20195;-78
2022/07/09 02:43:28;;;;;;;1.73;1.30;;;;;;;;;;5077334;28;20553;-78
2022/07/09 02:45:57;;;;;;;3.73;1.60;;;;;;;;;;5077667;28;20565;-78
2022/07/09 02:48:23;;;;;;;2.70;1.60;;;;;;;;;;5077743;28;20181;-78
2022/07/09 02:50:49;;;;;;;2.37;1.60;;;;;;;;;;5094200;28;20173;-78
2022/07/09 02:53:16;;;;;;;2.33;1.60;;;;;;;;;;5077199;28;20674;-78
2022/07/09 02:55:42;;;;;;;1.60;1.50;;;;;;;;;;5094343;28;20207;-78
2022/07/09 02:58:08;;;;;;;4.47;1.50;;;;;;;;;;5094384;28;20212;-78
2022/07/09 03:00:34;;;;;;;2.07;1.50;;;;;;;;;;5094085;28;20177;-78
2022/07/09 03:03:01;;;;;;;1.50;1.40;;;;;;;;;;5093703;28;20556;-78
2022/07/09 03:05:27;;;;;;;2.50;1.47;;;;;;;;;;5093770;28;20265;-78
2022/07/09 03:07:53;;;;;;;2.03;1.50;;;;;;;;;;5093767;28;20605;-78
2022/07/09 03:10:19;;;;;;;2.13;1.47;;;;;;;;;;5093935;28;20187;-78
2022/07/09 03:12:45;;;;;;;2.43;1.30;;;;;;;;;;5076719;28;20211;-78
2022/07/09 03:15:13;;;;;;;1.97;1.40;;;;;;;;;;5097238;22;20216;-79
2022/07/09 03:17:39;;;;;;;1.50;1.40;;;;;;;;;;5073423;28;20181;-78
2022/07/09 03:20:05;;;;;;;1.70;1.40;;;;;;;;;;5074289;28;20615;-78
2022/07/09 03:22:31;;;;;;;2.13;1.50;;;;;;;;;;5056867;28;20185;-78
2022/07/09 03:24:57;;;;;;;1.50;1.40;;;;;;;;;;5073384;28;20199;-78
2022/07/09 03:27:23;;;;;;;2.00;1.37;;;;;;;;;;5073289;28;20177;-78
2022/07/09 03:29:49;;;;;;;3.00;1.50;;;;;;;;;;5056498;28;20188;-78
2022/07/09 03:32:15;;;;;;;1.70;1.47;;;;;;;;;;5056426;28;20205;-78
2022/07/09 03:34:41;;;;;;;2.30;1.60;;;;;;;;;;5073020;28;20173;-78
2022/07/09 03:37:07;;;;;;;2.10;1.70;;;;;;;;;;5056672;28;20193;-78
2022/07/09 03:39:33;;;;;;;5.30;1.83;;;;;;;;;;5074277;28;20173;-78
2022/07/09 03:41:59;;;;;;;2.77;1.50;;;;;;;;;;5056365;28;20192;-78
2022/07/09 03:44:25;;;;;;;1.73;1.50;;;;;;;;;;5056510;28;20185;-78
2022/07/09 03:46:51;;;;;;;1.60;1.50;;;;;;;;;;5072798;28;20232;-78
2022/07/09 03:49:17;;;;;;;2.07;1.50;;;;;;;;;;5056202;28;20181;-78
2022/07/09 03:51:44;;;;;;;2.67;1.50;;;;;;;;;;5056106;28;20698;-78
2022/07/09 03:54:10;;;;;;;1.50;1.40;;;;;;;;;;5056152;28;20200;-78
2022/07/09 03:56:36;;;;;;;2.43;1.70;;;;;;;;;;5072596;28;20196;-78
2022/07/09 03:59:02;;;;;;;1.67;1.43;;;;;;;;;;5056083;28;20184;-78
2022/07/09 04:01:28;;;;;;;3.50;1.70;;;;;;;;;;5072618;28;20184;-78
2022/07/09 04:03:54;;;;;;;1.53;1.37;;;;;;;;;;5073483;28;20594;-78
2022/07/09 04:06:20;;;;;;;1.67;1.47;;;;;;;;;;5055802;28;20694;-78
2022/07/09 04:08:46;;;;;;;1.93;1.50;;;;;;;;;;5072293;28;20268;-78
2022/07/09 04:11:12;;;;;;;2.13;1.40;;;;;;;;;;5072281;28;20185;-78
2022/07/09 04:13:38;;;;;;;1.63;1.53;;;;;;;;;;5073284;28;20160;-78
2022/07/09 04:16:05;;;;;;;1.53;1.43;;;;;;;;;;5073442;28;20678;-78
2022/07/09 04:18:31;;;;;;;2.90;1.70;;;;;;;;;;5072127;28;20177;-78
2022/07/09 04:20:57;;;;;;;1.50;1.40;;;;;;;;;;5072113;28;20180;-78
2022/07/09 04:23:23;;;;;;;1.73;1.40;;;;;;;;;;5055278;28;20185;-78
2022/07/09 04:25:50;;;;;;;1.60;1.50;;;;;;;;;;5055533;28;20274;-78
2022/07/09 04:28:18;;;;;;;2.27;1.53;;;;;;;;;;5072161;28;20188;-78
2022/07/09 04:30:44;;;;;;;2.03;1.53;;;;;;;;;;5071903;28;20643;-78
2022/07/09 04:33:10;;;;;;;1.60;1.50;;;;;;;;;;5054997;28;20219;-78
2022/07/09 04:35:36;;;;;;;1.90;1.63;;;;;;;;;;5055190;28;20243;-78
2022/07/09 04:38:02;;;;;;;1.60;1.50;;;;;;;;;;5071792;28;20226;-78
2022/07/09 04:40:28;;;;;;;2.53;1.63;;;;;;;;;;5054710;28;20271;-78
2022/07/09 04:42:54;;;;;;;1.50;1.40;;;;;;;;;;5055189;28;20537;-78
2022/07/09 04:45:20;;;;;;;2.40;1.80;;;;;;;;;;5071735;28;20212;-78
2022/07/09 04:47:46;;;;;;;1.60;1.50;;;;;;;;;;5071611;28;20667;-78
2022/07/09 04:50:12;;;;;;;1.97;1.63;;;;;;;;;;5055308;28;20580;-78
2022/07/09 04:52:39;;;;;;;1.87;1.70;;;;;;;;;;5054933;28;20209;-78
2022/07/09 04:55:05;;;;;;;2.00;1.70;;;;;;;;;;5071389;28;20169;-78
2022/07/09 04:57:31;;;;;;;3.67;1.60;;;;;;;;;;5071405;28;20177;-78
2022/07/09 05:00:01;;;;;;;1.67;1.53;;;;;;;;;;5054887;28;20179;-78
2022/07/09 05:02:27;;;;;;;1.60;1.50;;;;;;;;;;5071240;28;20204;-78
2022/07/09 05:04:53;;;;;;;2.40;1.70;;;;;;;;;;5071488;28;20520;-78
2022/07/09 05:07:19;;;;;;;1.73;1.63;;;;;;;;;;5054859;28;20212;-78
2022/07/09 05:09:45;;;;;;;2.60;1.73;;;;;;;;;;5054726;28;20238;-79
2022/07/09 05:12:11;;;;;;;2.40;1.70;;;;;;;;;;5054515;28;20209;-79
2022/07/09 05:14:38;;;;;;;2.67;1.63;;;;;;;;;;5054735;28;20551;-79
2022/07/09 05:17:04;;;;;;;1.97;1.77;;;;;;;;;;5054631;28;20307;-79
2022/07/09 05:19:30;;;;;;;2.33;2.00;;;;;;;;;;5071392;28;20176;-79
2022/07/09 05:21:56;;;;;;;2.10;1.60;;;;;;;;;;5054224;28;20185;-79
2022/07/09 05:24:22;;;;;;;2.67;1.90;;;;;;;;;;5054536;28;20635;-79
2022/07/09 05:26:48;;;;;;;2.87;1.73;;;;;;;;;;5071307;28;20246;-79
2022/07/09 05:29:14;;;;;;;2.37;1.90;;;;;;;;;;5054609;28;20185;-79
2022/07/09 05:31:40;;;;;;;2.70;2.00;;;;;;;;;;5055691;28;20596;-79
2022/07/09 05:34:07;;;;;;;2.30;2.03;;;;;;;;;;5075578;28;20173;-82
2022/07/09 05:36:33;;;;;;;4.90;2.00;;;;;;;;;;5060226;28;20197;-82
2022/07/09 05:39:00;;;;;;;1.90;1.70;;;;;;;;;;5075930;28;20173;-80
2022/07/09 05:41:26;;;;;;;2.07;1.70;;;;;;;;;;5076062;28;20180;-81
2022/07/09 05:43:53;;;;;;;2.67;1.50;;;;;;;;;;5077056;28;20177;-80
2022/07/09 05:46:19;;;;;;;2.60;2.07;;;;;;;;;;5060257;28;20197;-81
2022/07/09 05:48:45;;;;;;;1.70;1.60;;;;;;;;;;5074157;28;20205;-79
2022/07/09 05:51:11;;;;;;;2.37;1.83;;;;;;;;;;5072362;28;20208;-79
2022/07/09 05:53:37;;;;;;;2.07;1.70;;;;;;;;;;5056708;28;20658;-79
2022/07/09 05:56:03;;;;;;;2.97;2.10;;;;;;;;;;5059342;28;20200;-79
2022/07/09 05:58:29;;;;;;;3.60;2.23;;;;;;;;;;5058976;28;20233;-79
2022/07/09 06:00:55;;;;;;;3.73;2.37;;;;;;;;;;5059053;28;20180;-79
2022/07/09 06:03:21;;;;;;;4.50;2.50;;;;;;;;;;5075132;28;20204;-77
2022/07/09 06:05:47;;;;;;;2.57;2.37;;;;;;;;;;5074951;28;20201;-77
2022/07/09 06:08:13;;;;;;;3.77;2.70;;;;;;;;;;5058479;28;20180;-78
2022/07/09 06:10:39;;;;;;;3.10;2.77;;;;;;;;;;5062574;28;20184;-78
2022/07/09 06:13:05;;;;;;;4.07;2.53;;;;;;;;;;5082853;28;20260;-78
2022/07/09 06:15:31;;;;;;;4.40;3.03;;;;;;;;;;5061186;28;20303;-78
2022/07/09 06:17:57;;;;;;;3.87;3.20;;;;;;;;;;5058363;28;20613;-78
2022/07/09 06:20:23;;;;;;;3.60;3.20;;;;;;;;;;5074580;28;20183;-78
2022/07/09 06:22:49;;;;;;;3.37;2.60;;;;;;;;;;5058083;28;20267;-80
2022/07/09 06:25:15;;;;;;;3.37;2.80;;;;;;;;;;5058091;28;20181;-80
2022/07/09 06:27:42;;;;;;;3.53;2.97;;;;;;;;;;5058085;28;20647;-78
2022/07/09 06:30:08;;;;;;;3.60;3.00;;;;;;;;;;5058411;28;20189;-82
2022/07/09 06:32:35;;;;;;;4.80;2.90;;;;;;;;;;5074451;28;20205;-82
2022/07/09 06:35:02;;;;;;;3.73;3.00;;;;;;;;;;5057959;28;20184;-81
2022/07/09 06:37:28;;;;;;;4.83;3.33;;;;;;;;;;5074787;28;20173;-78
2022/07/09 06:39:56;;;;;;;4.33;2.97;;;;;;;;;;5074114;28;20184;-77
2022/07/09 06:42:22;;;;;;;5.17;3.00;;;;;;;;;;5073851;28;20710;-77
2022/07/09 06:44:48;;;;;;;3.57;3.23;;;;;;;;;;5074125;28;20200;-77
2022/07/09 06:47:14;;;;;;;4.57;3.20;;;;;;;;;;5073833;28;20201;-77
2022/07/09 06:49:41;;;;;;;4.47;3.37;;;;;;;;;;5057440;28;20330;-77
2022/07/09 06:52:07;;;;;;;4.43;3.13;;;;;;;;;;5073759;28;20197;-77
2022/07/09 06:54:33;;;;;;;5.17;3.13;;;;;;;;;;5057323;28;20177;-77
2022/07/09 06:56:59;;;;;;;0.70;0.70;;;;;;;;;;5073618;28;20193;-77
2022/07/09 06:59:25;;;;;;;2.13;1.30;;;;;;;;;;5057146;28;20178;-77
2022/07/09 07:01:52;;;;;;;3.67;1.30;;;;;;;;;;5057054;28;20235;-77
2022/07/09 07:04:19;;;;;;;3.70;1.20;;;;;;;;;;5073268;28;20180;-77
2022/07/09 07:06:48;;;;;;;1.13;1.00;;;;;;;;;;5057305;28;20259;-77
2022/07/09 07:09:15;;;;;;;3.73;1.37;;;;;;;;;;5073565;28;20173;-77
2022/07/09 07:11:41;;;;;;;1.40;1.30;;;;;;;;;;5057085;28;20246;-77
2022/07/09 07:14:07;;;;;;;2.10;1.53;;;;;;;;;;5056816;28;20205;-77
2022/07/09 07:16:33;;;;;;;1.60;1.50;;;;;;;;;;5073222;28;20217;-77
2022/07/09 07:18:59;;;;;;;1.40;1.30;;;;;;;;;;5056838;28;20235;-77
2022/07/09 07:21:25;;;;;;;1.03;1.03;;;;;;;;;;5073053;28;20599;-77
2022/07/09 07:23:51;;;;;;;1.97;1.40;;;;;;;;;;5056665;28;20177;-77
2022/07/09 07:26:17;;;;;;;2.77;2.00;;;;;;;;;;5056519;28;20197;-77
2022/07/09 07:28:43;;;;;;;3.50;1.50;;;;;;;;;;5073631;28;20176;-78
2022/07/09 07:31:09;;;;;;;2.03;1.50;;;;;;;;;;5073067;28;20705;-83
2022/07/09 07:33:35;;;;;;;1.63;1.40;;;;;;;;;;5056463;28;20177;-77
2022/07/09 07:36:01;;;;;;;1.80;1.70;;;;;;;;;;5056714;28;20193;-77
2022/07/09 07:38:27;;;;;;;3.33;1.27;;;;;;;;;;5074219;28;20173;-81
2022/07/09 07:40:54;;;;;;;1.80;1.70;;;;;;;;;;5057320;28;20264;-78
2022/07/09 07:43:20;;;;;;;3.60;1.80;;;;;;;;;;5056486;28;20189;-80
2022/07/09 07:45:46;;;;;;;3.20;1.53;;;;;;;;;;5056384;28;20292;-78
2022/07/09 07:48:11;;;;;;;1.97;1.57;;;;;;;;;;5056573;28;20184;-79
2022/07/09 07:50:38;;;;;;;1.73;1.27;;;;;;;;;;5073551;28;20177;-79
2022/07/09 07:53:06;;;;;;;1.67;1.57;;;;;;;;;;5056886;28;20304;-79
2022/07/09 07:55:32;;;;;;;1.67;1.57;;;;;;;;;;5058878;28;20233;-79
2022/07/09 07:57:58;;;;;;;1.87;1.70;;;;;;;;;;5076262;28;20203;-79
2022/07/09 08:00:24;;;;;;;4.83;1.63;;;;;;;;;;5075466;28;20209;-78
2022/07/09 08:02:50;;;;;;;2.10;1.37;;;;;;;;;;5057953;28;20185;-78
2022/07/09 08:05:16;;;;;;;5.03;1.83;;;;;;;;;;5058387;28;20661;-79
2022/07/09 08:07:42;;;;;;;1.77;1.67;;;;;;;;;;5057436;28;20177;-78
2022/07/09 08:10:08;;;;;;;3.27;1.97;;;;;;;;;;5074439;28;20173;-83
2022/07/09 08:12:34;;;;;;;4.20;1.60;;;;;;;;;;5076163;28;20201;-79
2022/07/09 08:15:00;;;;;;;1.80;1.70;;;;;;;;;;5060410;28;20181;-79
2022/07/09 08:17:26;;;;;;;2.63;1.67;;;;;;;;;;5057220;28;20180;-78
2022/07/09 08:19:52;;;;;;;1.90;1.60;;;;;;;;;;5056949;28;20200;-80
2022/07/09 08:22:18;;;;;;;8.13;1.48;;;;;;;;;;5056809;28;20531;-79
2022/07/09 08:24:44;;;;;;;1.02;1.02;;;;;;;;;;5057798;28;20231;-81
2022/07/09 08:27:10;;;;;;;2.42;1.67;;;;;;;;;;5061645;28;20205;-81
2022/07/09 08:29:37;;;;;;;2.05;1.67;;;;;;;;;;5072626;28;20188;-80
2022/07/09 08:32:04;;;;;;;2.83;1.70;;;;;;;;;;5057084;28;20675;-81
2022/07/09 08:34:30;;;;;;;1.60;1.40;;;;;;;;;;5054315;28;20559;-81
2022/07/09 08:36:56;;;;;;;1.73;1.47;;;;;;;;;;5067910;28;20555;-81
2022/07/09 08:39:22;;;;;;;1.03;0.90;;;;;;;;;;5057454;28;20650;-81
2022/07/09 08:41:48;;;;;;;1.95;1.17;;;;;;;;;;5057693;28;20189;-81
2022/07/09 08:44:15;;;;;;;1.30;1.20;;;;;;;;;;5074536;28;20207;-81
2022/07/09 08:46:41;;;;;;;1.17;0.98;;;;;;;;;;5057460;28;20288;-81
2022/07/09 08:49:07;;;;;;;1.43;1.33;;;;;;;;;;5073786;28;20606;-81
2022/07/09 08:51:35;;;;;;;3.23;1.00;;;;;;;;;;5073878;28;20200;-81
2022/07/09 08:54:02;;;;;;;1.43;1.33;;;;;;;;;;5073633;28;20650;-81
2022/07/09 08:56:28;;;;;;;1.20;1.10;;;;;;;;;;5074461;28;20201;-81
2022/07/09 08:58:54;;;;;;;1.80;1.20;;;;;;;;;;5074653;28;20180;-81
2022/07/09 09:01:20;;;;;;;1.55;0.90;;;;;;;;;;5057801;28;20177;-81
2022/07/09 09:03:46;;;;;;;1.65;1.50;;;;;;;;;;5058359;28;20230;-81
2022/07/09 09:06:13;;;;;;;1.23;1.10;;;;;;;;;;5074744;28;20247;-81
2022/07/09 09:08:40;;;;;;;1.23;1.13;;;;;;;;;;5074694;28;20180;-81
2022/07/09 09:11:08;;;;;;;1.27;1.02;;;;;;;;;;5074889;28;20176;-81
2022/07/09 09:13:40;;;;;;;1.00;0.90;;;;;;;;;;5074938;28;20219;-81
2022/07/09 09:16:07;;;;;;;1.50;1.00;;;;;;;;;;5117323;23;20240;-77
2022/07/09 09:18:37;;;;;;;1.30;1.10;;;;;;;;;;5074645;28;20176;-77
2022/07/09 09:21:07;;;;;;;4.40;3.50;;;;;;;;;;5091587;28;20201;-77
2022/07/09 09:23:43;;;;;;;5.05;3.50;;;;;;;;;;5092426;28;20314;-77
2022/07/09 09:26:13;;;;;;;4.82;4.30;;;;;;;;;;5091368;28;20192;-77
2022/07/09 09:28:46;;;;;;;8.63;4.43;;;;;;;;;;5074465;28;20177;-77
2022/07/09 09:31:23;;;;;;;4.60;4.15;;;;;;;;;;5091113;28;20203;-77
2022/07/09 09:33:49;;;;;;;5.32;3.60;;;;;;;;;;5091328;28;20250;-77
2022/07/09 09:36:28;;;;;;;5.18;4.20;;;;;;;;;;5092245;28;20188;-77
2022/07/09 09:38:54;;;;;;;3.97;3.47;;;;;;;;;;5092449;28;20156;-77
2022/07/09 09:41:25;;;;;;;3.97;3.30;;;;;;;;;;5090981;28;20168;-77
2022/07/09 09:43:53;;;;;;;3.80;3.42;;;;;;;;;;5091239;28;20172;-80
2022/07/09 09:46:19;;;;;;;3.70;3.30;;;;;;;;;;5074425;28;20249;-77
2022/07/09 09:48:45;;;;;;;4.88;3.55;;;;;;;;;;5092369;28;20177;-77
2022/07/09 09:51:12;;;;;;;3.22;2.95;;;;;;;;;;5072161;28;20176;-80
2022/07/09 09:53:39;;;;;;;3.65;2.90;;;;;;;;;;5061757;28;20605;-76
2022/07/09 09:56:06;;;;;;;3.97;3.50;;;;;;;;;;5070726;28;20278;-76
2022/07/09 09:58:32;;;;;;;4.47;3.63;;;;;;;;;;5054586;28;20523;-77
2022/07/09 10:00:58;;;;;;;4.78;3.45;;;;;;;;;;5054317;28;20246;-77
2022/07/09 10:03:24;;;;;;;3.47;3.15;;;;;;;;;;5054127;28;20535;-77
2022/07/09 10:05:51;;;;;;;3.90;3.13;;;;;;;;;;5054608;28;20575;-76
2022/07/09 10:08:17;;;;;;;3.47;3.10;;;;;;;;;;5072497;28;20168;-77
2022/07/09 10:10:52;;;;;;;3.42;3.10;;;;;;;;;;5074889;28;20180;-76
2022/07/09 10:13:24;;;;;;;43.17;8.55;;;;;;;;;;5091380;28;20738;-77
2022/07/09 10:15:51;;;;;;;4.82;3.70;;;;;;;;;;5074485;28;20229;-77
2022/07/09 10:18:20;;;;;;;4.00;3.60;;;;;;;;;;5091160;28;20196;-76
2022/07/09 10:20:46;;;;;;;8.57;7.75;;;;;;;;;;5091226;28;20177;-76
2022/07/09 10:23:22;;;;;;;3.78;3.35;;;;;;;;;;5090984;28;20263;-77
2022/07/09 10:25:52;;;;;;;3.83;3.20;;;;;;;;;;5089592;28;20211;-77
2022/07/09 10:28:18;;;;;;;3.35;3.13;;;;;;;;;;5080863;28;20177;-77
2022/07/09 10:30:45;;;;;;;3.83;3.20;;;;;;;;;;5070554;28;20574;-77
2022/07/09 10:33:22;;;;;;;3.33;3.03;;;;;;;;;;5071480;28;20235;-77
2022/07/09 10:35:52;;;;;;;4.20;2.97;;;;;;;;;;5054026;28;20726;-77
2022/07/09 10:38:18;;;;;;;3.92;2.83;;;;;;;;;;5070382;28;20174;-77
2022/07/09 10:40:46;;;;;;;3.53;2.88;;;;;;;;;;5075908;28;20173;-77
2022/07/09 10:43:13;;;;;;;3.90;2.95;;;;;;;;;;5093840;28;20176;-77
2022/07/09 10:45:42;;;;;;;2.90;2.70;;;;;;;;;;5077454;28;20226;-77
2022/07/09 10:48:09;;;;;;;2.90;2.60;;;;;;;;;;5077317;28;20176;-77
2022/07/09 10:50:42;;;;;;;2.95;2.63;;;;;;;;;;5094532;28;20172;-77
2022/07/09 10:53:09;;;;;;;1.35;1.10;;;;;;;;;;5094145;28;20200;-77
2022/07/09 10:55:35;;;;;;;1.20;1.10;;;;;;;;;;5093964;28;20175;-77
2022/07/09 10:58:02;;;;;;;1.80;1.08;;;;;;;;;;5091161;28;20173;-77
2022/07/09 11:00:29;;;;;;;1.58;1.20;;;;;;;;;;5074107;28;20169;-77
2022/07/09 11:02:58;;;;;;;2.58;1.10;;;;;;;;;;5074343;28;20264;-76
2022/07/09 11:05:28;;;;;;;1.25;1.15;;;;;;;;;;5074339;28;20189;-76
2022/07/09 11:08:01;;;;;;;1.00;0.80;;;;;;;;;;5074409;28;20184;-76
2022/07/09 11:10:28;;;;;;;0.80;0.80;;;;;;;;;;5074463;28;20643;-76
2022/07/09 11:12:55;;;;;;;1.02;0.80;;;;;;;;;;5073678;28;20204;-76
2022/07/09 11:15:21;;;;;;;0.55;0.55;;;;;;;;;;5073823;28;20196;-76
2022/07/09 11:17:57;;;;;;;1.20;1.02;;;;;;;;;;5074239;28;20235;-76
2022/07/09 11:20:24;;;;;;;0.73;0.70;;;;;;;;;;5073944;28;20700;-76
2022/07/09 11:22:50;;;;;;;0.63;0.63;;;;;;;;;;5073914;28;20176;-76
2022/07/09 11:25:16;;;;;;;0.95;0.73;;;;;;;;;;5075085;28;20252;-76
2022/07/09 11:27:43;;;;;;;1.20;1.10;;;;;;;;;;5057460;28;20200;-76
2022/07/09 11:30:14;;;;;;;1.65;1.13;;;;;;;;;;5057144;28;20204;-76
2022/07/09 11:32:40;;;;;;;1.08;0.93;;;;;;;;;;5057682;28;20236;-76
2022/07/09 11:35:06;;;;;;;2.13;1.20;;;;;;;;;;5073987;28;20213;-76
2022/07/09 11:37:32;;;;;;;1.42;1.10;;;;;;;;;;5073867;28;20193;-76
2022/07/09 11:39:58;;;;;;;1.70;1.30;;;;;;;;;;5073669;28;20185;-76
2022/07/09 11:42:24;;;;;;;1.20;1.10;;;;;;;;;;5073590;28;20189;-76
2022/07/09 11:45:00;;;;;;;1.20;1.10;;;;;;;;;;5073683;28;20185;-76
2022/07/09 11:47:32;;;;;;;1.27;1.17;;;;;;;;;;5073315;28;20279;-76
2022/07/09 11:50:25;;;;;;;1.30;1.10;;;;;;;;;;5072718;28;20299;-76
2022/07/09 11:52:51;;;;;;;3.00;1.70;;;;;;;;;;5087610;28;20687;-76
2022/07/09 11:55:21;;;;;;;1.70;1.40;;;;;;;;;;5073347;28;20185;-76
2022/07/09 11:57:52;;;;;;;1.45;1.35;;;;;;;;;;5074716;28;20220;-76
2022/07/09 12:00:22;;;;;;;0.85;0.77;;;;;;;;;;5073575;28;20170;-76
2022/07/09 12:02:48;;;;;;;2.10;1.10;;;;;;;;;;5074212;28;20227;-76
2022/07/09 12:05:24;;;;;;;1.10;1.00;;;;;;;;;;5073077;28;20181;-76
2022/07/09 12:07:53;;;;;;;1.65;1.00;;;;;;;;;;5072956;28;20161;-76
2022/07/09 12:10:25;;;;;;;1.35;1.20;;;;;;;;;;5073258;28;20184;-76
2022/07/09 12:12:51;;;;;;;2.40;2.15;;;;;;;;;;5072895;28;20226;-76
2022/07/09 12:15:17;;;;;;;25.48;3.67;;;;;;;;;;5072807;28;20216;-76
2022/07/09 12:17:43;;;;;;;37.20;3.63;;;;;;;;;;5072998;28;20204;-76
2022/07/09 12:20:09;;;;;;;1.85;1.70;;;;;;;;;;5072780;28;20639;-76
2022/07/09 12:22:36;;;;;;;2.08;1.85;;;;;;;;;;5072653;28;20181;-76
2022/07/09 12:25:03;;;;;;;2.13;1.95;;;;;;;;;;5073028;28;20600;-76
2022/07/09 12:27:29;;;;;;;2.83;1.83;;;;;;;;;;5072407;28;20200;-76
2022/07/09 12:29:54;;;;;;;2.63;2.00;;;;;;;;;;5072782;28;20173;-76
2022/07/09 12:32:20;;;;;;;2.70;2.00;;;;;;;;;;5072355;28;20723;-76
2022/07/09 12:34:46;;;;;;;2.42;1.80;;;;;;;;;;5072618;28;20173;-76
2022/07/09 12:37:12;;;;;;;3.03;1.80;;;;;;;;;;5072567;28;20588;-76
2022/07/09 12:39:38;;;;;;;2.45;1.80;;;;;;;;;;5072528;28;20169;-76
2022/07/09 12:42:05;;;;;;;2.10;1.80;;;;;;;;;;5072008;28;20169;-77
2022/07/09 12:44:30;;;;;;;2.83;1.90;;;;;;;;;;5072385;28;20185;-76
2022/07/09 12:46:56;;;;;;;1.90;1.80;;;;;;;;;;5072057;28;20205;-76
2022/07/09 12:49:22;;;;;;;2.05;1.85;;;;;;;;;;5072175;28;20169;-76
2022/07/09 12:51:49;;;;;;;1.70;1.60;;;;;;;;;;5072244;28;20295;-76
2022/07/09 12:54:15;;;;;;;2.10;1.88;;;;;;;;;;5071972;28;20204;-76
2022/07/09 12:56:41;;;;;;;2.25;1.60;;;;;;;;;;5071866;28;20679;-76
2022/07/09 12:59:07;;;;;;;1.70;1.60;;;;;;;;;;5072196;28;20168;-76
2022/07/09 13:01:33;;;;;;;2.00;1.50;;;;;;;;;;5071802;28;20165;-76
2022/07/09 13:03:59;;;;;;;1.80;1.70;;;;;;;;;;5071883;28;20271;-77
2022/07/09 13:06:31;;;;;;;1.65;1.55;;;;;;;;;;5071844;28;20252;-76
2022/07/09 13:08:57;;;;;;;1.55;1.45;;;;;;;;;;5072673;28;20530;-76
2022/07/09 13:11:23;;;;;;;1.85;1.38;;;;;;;;;;5071607;28;20643;-76
2022/07/09 13:13:49;;;;;;;1.95;1.50;;;;;;;;;;5071620;28;20173;-76
2022/07/09 13:16:15;;;;;;;2.80;1.20;;;;;;;;;;5072834;28;20204;-76
2022/07/09 13:18:41;;;;;;;1.38;1.23;;;;;;;;;;5071576;28;20169;-76
2022/07/09 13:21:07;;;;;;;1.52;1.42;;;;;;;;;;5071718;28;20171;-76
2022/07/09 13:23:33;;;;;;;1.42;1.20;;;;;;;;;;5071296;28;20650;-76
2022/07/09 13:25:59;;;;;;;1.25;1.15;;;;;;;;;;5071888;28;20193;-76
2022/07/09 13:28:26;;;;;;;2.25;1.23;;;;;;;;;;5071616;28;20173;-77
2022/07/09 13:30:52;;;;;;;1.30;1.20;;;;;;;;;;5071537;28;20169;-76
2022/07/09 13:33:18;;;;;;;1.80;1.13;;;;;;;;;;5071600;28;20704;-76
2022/07/09 13:35:44;;;;;;;1.30;1.20;;;;;;;;;;5071685;28;20242;-75
2022/07/09 13:38:10;;;;;;;1.30;1.20;;;;;;;;;;5071600;28;20544;-76
2022/07/09 13:40:36;;;;;;;1.30;1.20;;;;;;;;;;5071732;28;20238;-76
2022/07/09 13:43:02;;;;;;;1.70;1.10;;;;;;;;;;5071123;28;20173;-76
2022/07/09 13:45:28;;;;;;;2.38;1.20;;;;;;;;;;5071271;28;20325;-76
2022/07/09 13:47:55;;;;;;;1.83;1.10;;;;;;;;;;5071522;28;20191;-76
2022/07/09 13:50:21;;;;;;;2.42;1.20;;;;;;;;;;5071301;28;20526;-76
2022/07/09 13:52:47;;;;;;;1.33;1.23;;;;;;;;;;5071133;28;20623;-76
2022/07/09 13:55:13;;;;;;;1.42;1.20;;;;;;;;;;5071436;28;20177;-77
2022/07/09 13:57:39;;;;;;;1.63;1.40;;;;;;;;;;5071201;28;20196;-76
2022/07/09 14:00:06;;;;;;;1.67;1.10;;;;;;;;;;5071222;28;20169;-76
2022/07/09 14:02:33;;;;;;;1.38;1.08;;;;;;;;;;5071036;28;20188;-76
2022/07/09 14:05:00;;;;;;;1.52;1.00;;;;;;;;;;5071057;28;20176;-76
2022/07/09 14:07:26;;;;;;;1.23;1.00;;;;;;;;;;5072621;28;20625;-76
2022/07/09 14:09:52;;;;;;;4.28;1.30;;;;;;;;;;5071397;28;20643;-76
2022/07/09 14:12:18;;;;;;;1.20;1.10;;;;;;;;;;5070935;28;20283;-76
2022/07/09 14:14:44;;;;;;;1.45;1.10;;;;;;;;;;5073724;28;20173;-75
2022/07/09 14:17:11;;;;;;;2.05;1.20;;;;;;;;;;5074817;28;20705;-75
2022/07/09 14:19:37;;;;;;;1.10;1.00;;;;;;;;;;5075328;28;20204;-76
2022/07/09 14:22:03;;;;;;;1.20;1.10;;;;;;;;;;5074982;28;20177;-76
2022/07/09 14:24:29;;;;;;;1.20;1.10;;;;;;;;;;5074977;28;20287;-76
2022/07/09 14:26:55;;;;;;;1.58;1.20;;;;;;;;;;5075114;28;20216;-76
2022/07/09 14:29:21;;;;;;;2.33;1.30;;;;;;;;;;5075153;28;20234;-75
2022/07/09 14:31:47;;;;;;;1.20;1.10;;;;;;;;;;5074461;28;20284;-76
2022/07/09 14:34:13;;;;;;;1.30;1.20;;;;;;;;;;5075082;28;20632;-76
2022/07/09 14:36:40;;;;;;;1.17;1.08;;;;;;;;;;5074675;28;20229;-76
2022/07/09 14:39:06;;;;;;;1.20;1.10;;;;;;;;;;5074837;28;20169;-76